Time;durP1;ratioP1;P1;durP2;ratioP2;P2;SDS_P1;SDS_P2;PMS_P1;PMS_P2;Temp;Humidity;BMP_temperature;BMP_pressure;BME280_temperature;BME280_humidity;BME280_pressure;Samples;Min_cycle;Max_cycle;Signal;HPM_P1;HPM_P2
2023/01/27 00:00:23;;;;;;;12.20;3.08;;;;;;;5.33;87.29;102390.13;5013903;28;20037;-80
2023/01/27 00:02:49;;;;;;;10.77;3.00;;;;;;;5.31;86.90;102391.78;5013243;28;20034;-80
2023/01/27 00:05:15;;;;;;;12.95;2.72;;;;;;;5.32;86.72;102387.44;5013914;28;20030;-80
2023/01/27 00:07:45;;;;;;;12.43;2.78;;;;;;;5.26;86.79;102381.00;5013580;28;20056;-80
2023/01/27 00:10:19;;;;;;;14.18;3.00;;;;;;;5.26;86.45;102380.09;5014129;28;20179;-79
2023/01/27 00:15:32;;;;;;;11.60;3.05;;;;;;;5.26;86.80;102386.25;5013776;28;20405;-79
2023/01/27 00:17:57;;;;;;;13.85;3.15;;;;;;;5.25;87.00;102383.53;5013671;28;20040;-80
2023/01/27 00:26:05;;;;;;;11.77;2.80;;;;;;;5.17;87.73;102375.25;5014255;28;20041;-80
2023/01/27 00:28:31;;;;;;;14.10;2.90;;;;;;;5.15;88.21;102379.50;5013153;28;20427;-80
2023/01/27 00:30:58;;;;;;;8.15;2.67;;;;;;;5.15;88.32;102384.75;5013932;28;20542;-80
2023/01/27 00:33:25;;;;;;;14.45;2.97;;;;;;;5.14;88.22;102380.31;5012409;28;20114;-81
2023/01/27 00:35:59;;;;;;;14.45;3.03;;;;;;;5.14;88.55;102382.94;5013263;28;20041;-79
2023/01/27 00:38:29;;;;;;;13.23;2.78;;;;;;;5.14;88.98;102380.31;5013671;28;20532;-80
2023/01/27 00:43:39;;;;;;;16.10;3.08;;;;;;;5.11;89.22;102385.38;5014077;28;20104;-79
2023/01/27 00:46:04;;;;;;;10.02;2.53;;;;;;;5.09;88.82;102389.63;5013775;28;20034;-79
2023/01/27 00:48:30;;;;;;;15.25;2.97;;;;;;;5.09;88.97;102387.00;5014052;28;20030;-80
2023/01/27 00:50:55;;;;;;;14.88;3.42;;;;;;;5.06;88.67;102384.22;5013496;28;20045;-80
2023/01/27 00:53:21;;;;;;;12.10;3.35;;;;;;;5.05;89.21;102386.72;5013429;28;20034;-80
2023/01/27 00:55:46;;;;;;;12.88;3.22;;;;;;;4.94;89.31;102387.03;5013633;28;20045;-80
2023/01/27 00:58:12;;;;;;;13.73;3.17;;;;;;;4.94;89.18;102394.88;5013388;28;20458;-80
2023/01/27 01:00:38;;;;;;;14.70;3.45;;;;;;;4.93;88.82;102403.56;5014057;28;20080;-80
2023/01/27 01:03:03;;;;;;;11.38;3.47;;;;;;;4.97;89.30;102400.31;5013092;28;20030;-79
2023/01/27 01:05:29;;;;;;;14.63;3.35;;;;;;;5.00;89.52;102400.47;5013059;28;20125;-80
2023/01/27 01:07:54;;;;;;;19.65;3.45;;;;;;;5.01;89.23;102401.38;5013292;28;20062;-81
2023/01/27 01:10:19;;;;;;;9.32;2.83;;;;;;;4.99;89.09;102403.00;5014065;28;20058;-79
2023/01/27 01:12:45;;;;;;;12.60;3.08;;;;;;;4.96;88.98;102408.06;5013543;28;20030;-79
2023/01/27 01:15:10;;;;;;;11.65;2.95;;;;;;;4.90;89.05;102403.38;5016624;28;20084;-80
2023/01/27 01:17:35;;;;;;;14.77;3.10;;;;;;;4.92;89.30;102408.69;5015571;28;20387;-80
2023/01/27 01:20:01;;;;;;;11.55;3.05;;;;;;;4.90;89.57;102407.72;5016708;28;20026;-79
2023/01/27 01:22:26;;;;;;;14.57;3.20;;;;;;;4.90;89.41;102411.22;5016537;28;20467;-80
2023/01/27 01:24:52;;;;;;;6.72;2.80;;;;;;;4.83;89.15;102405.53;5016783;28;20588;-80
2023/01/27 01:27:17;;;;;;;11.07;3.70;;;;;;;4.87;89.00;102418.00;5016585;28;20048;-79
2023/01/27 01:29:43;;;;;;;12.70;3.30;;;;;;;4.84;88.80;102423.03;5016393;28;20483;-80
2023/01/27 01:32:11;;;;;;;9.75;3.30;;;;;;;4.82;88.42;102422.97;5016579;28;20041;-79
2023/01/27 01:34:37;;;;;;;10.52;2.85;;;;;;;4.85;88.83;102419.63;5016258;28;20432;-80
2023/01/27 01:37:03;;;;;;;11.98;3.10;;;;;;;4.83;89.07;102411.66;5016535;28;20034;-80
2023/01/27 01:39:30;;;;;;;10.00;3.28;;;;;;;4.83;88.16;102426.47;5015132;28;20037;-80
2023/01/27 01:41:55;;;;;;;12.30;3.60;;;;;;;4.75;87.86;102424.34;5016380;28;20030;-80
2023/01/27 01:44:23;;;;;;;12.10;3.50;;;;;;;4.66;87.51;102421.13;5016637;28;20025;-80
2023/01/27 01:46:49;;;;;;;11.05;3.63;;;;;;;4.72;88.16;102431.09;5016310;28;20117;-80
2023/01/27 01:49:16;;;;;;;12.40;3.75;;;;;;;4.68;87.45;102430.00;5015938;28;20119;-80
2023/01/27 01:51:53;;;;;;;9.07;3.38;;;;;;;4.67;87.18;102425.59;5015948;28;20030;-80
2023/01/27 01:54:38;;;;;;;13.23;3.53;;;;;;;4.69;87.49;102421.34;5016985;28;20096;-80
2023/01/27 01:57:14;;;;;;;9.35;3.30;;;;;;;4.69;87.08;102429.19;5015390;28;20025;-80
2023/01/27 02:00:01;;;;;;;10.77;3.42;;;;;;;4.72;86.67;102429.38;5016318;28;20037;-80
2023/01/27 02:02:28;;;;;;;7.88;3.40;;;;;;;4.69;86.55;102431.81;5016223;28;20036;-80
2023/01/27 02:05:01;;;;;;;11.07;3.47;;;;;;;4.67;86.87;102412.50;5014490;28;20128;-80
2023/01/27 02:07:33;;;;;;;11.65;3.58;;;;;;;4.62;86.19;102419.16;5016479;28;20058;-80
2023/01/27 02:09:59;;;;;;;9.80;3.40;;;;;;;4.66;86.47;102421.13;5016345;28;20049;-80
2023/01/27 02:12:25;;;;;;;10.93;3.15;;;;;;;4.66;86.25;102421.13;5082324;22;20520;-65
2023/01/27 02:14:50;;;;;;;11.60;3.40;;;;;;;4.67;86.31;102429.94;5054931;28;20017;-65
2023/01/27 02:17:16;;;;;;;11.18;3.70;;;;;;;4.67;86.47;102422.06;5054871;28;20029;-65
2023/01/27 02:20:02;;;;;;;10.73;3.60;;;;;;;4.69;86.95;102425.66;5054822;28;20032;-65
2023/01/27 02:23:06;;;;;;;10.02;3.70;;;;;;;4.74;87.09;102432.97;5054906;28;20102;-65
2023/01/27 02:25:34;;;;;;;8.65;3.47;;;;;;;4.72;87.13;102434.63;4973382;28;20039;-65
2023/01/27 02:28:00;;;;;;;9.68;3.50;;;;;;;4.74;86.43;102435.59;5040719;28;20396;-65
2023/01/27 02:30:27;;;;;;;9.32;3.35;;;;;;;4.75;86.66;102433.88;5054749;28;20515;-65
2023/01/27 02:32:53;;;;;;;9.77;3.97;;;;;;;4.71;86.90;102432.81;5054627;28;20108;-65
2023/01/27 02:35:28;;;;;;;10.45;3.90;;;;;;;4.68;87.49;102443.09;5054578;28;20152;-65
2023/01/27 02:37:55;;;;;;;10.75;4.05;;;;;;;4.69;87.38;102449.25;5054897;28;20052;-65
2023/01/27 02:40:22;;;;;;;9.25;3.95;;;;;;;4.67;87.12;102441.31;5036707;28;20100;-65
2023/01/27 02:42:47;;;;;;;11.70;3.70;;;;;;;4.69;87.60;102446.63;5054438;28;20124;-65
2023/01/27 02:45:13;;;;;;;10.43;3.90;;;;;;;4.65;87.91;102442.00;5054430;28;20052;-65
2023/01/27 02:47:38;;;;;;;14.35;4.07;;;;;;;4.62;87.69;102445.31;5054359;28;20036;-65
2023/01/27 02:50:04;;;;;;;16.40;3.95;;;;;;;4.57;88.19;102436.31;5054373;28;20029;-64
2023/01/27 02:52:29;;;;;;;10.05;3.85;;;;;;;4.62;87.93;102447.94;5054201;28;20108;-65
2023/01/27 02:54:55;;;;;;;11.07;4.50;;;;;;;4.63;87.16;102446.25;5054297;28;20021;-65
2023/01/27 02:57:20;;;;;;;9.55;4.13;;;;;;;4.56;86.57;102444.97;5053893;28;20108;-65
2023/01/27 02:59:45;;;;;;;15.55;4.47;;;;;;;4.54;87.21;102451.84;5053980;28;20057;-65
2023/01/27 03:02:13;;;;;;;8.25;4.07;;;;;;;4.55;87.59;102447.50;5053976;28;20029;-66
2023/01/27 03:04:39;;;;;;;10.48;3.95;;;;;;;4.56;87.74;102446.69;5053889;28;20040;-65
2023/01/27 03:07:04;;;;;;;9.77;4.30;;;;;;;4.57;87.80;102438.91;5036192;28;20029;-65
2023/01/27 03:09:30;;;;;;;12.40;4.28;;;;;;;4.56;87.18;102451.94;5053891;28;20036;-65
2023/01/27 03:20:07;;;;;;;14.15;5.05;;;;;;;4.53;87.67;102450.91;5053876;28;20040;-64
2023/01/27 03:22:33;;;;;;;14.68;5.70;;;;;;;4.50;87.86;102444.63;5053535;28;20024;-65
2023/01/27 03:24:58;;;;;;;10.10;4.75;;;;;;;4.51;87.44;102456.88;5053794;28;20029;-65
2023/01/27 03:27:23;;;;;;;13.57;5.22;;;;;;;4.47;88.02;102450.56;5053337;28;20130;-65
2023/01/27 03:29:54;;;;;;;16.15;5.63;;;;;;;4.39;87.74;102450.91;5053469;28;20401;-65
2023/01/27 03:32:25;;;;;;;13.85;6.30;;;;;;;4.36;87.98;102459.44;5053465;28;20032;-66
2023/01/27 03:34:50;;;;;;;13.52;5.78;;;;;;;4.32;87.63;102454.81;5053479;28;20474;-65
2023/01/27 03:48:13;;;;;;;12.15;5.63;;;;;;;4.39;89.62;102467.50;5053549;28;20495;-65
2023/01/27 03:50:42;;;;;;;13.02;6.00;;;;;;;4.42;89.71;102467.69;5053164;28;20021;-65
2023/01/27 03:53:11;;;;;;;17.95;6.65;;;;;;;4.41;90.27;102472.81;5053139;28;20024;-65
2023/01/27 03:55:37;;;;;;;12.75;6.43;;;;;;;4.36;90.15;102480.38;5053179;28;20025;-65
2023/01/27 03:58:19;;;;;;;12.75;6.82;;;;;;;4.30;89.96;102481.72;5052962;28;20043;-65
2023/01/27 04:00:53;;;;;;;17.52;7.38;;;;;;;4.31;90.87;102484.44;5053077;28;20075;-64
2023/01/27 04:08:50;;;;;;;18.55;8.00;;;;;;;4.32;89.99;102473.16;5053372;28;20035;-65
2023/01/27 04:14:01;;;;;;;14.50;8.10;;;;;;;4.25;90.88;102481.44;5053277;28;20051;-64
2023/01/27 04:16:30;;;;;;;18.60;7.53;;;;;;;4.27;90.74;102474.56;5053128;28;20041;-65
2023/01/27 04:18:56;;;;;;;16.75;7.75;;;;;;;4.26;90.83;102483.25;5035412;28;20026;-65
2023/01/27 04:21:24;;;;;;;17.92;8.85;;;;;;;4.24;90.26;102483.16;5052757;28;20041;-65
2023/01/27 04:23:50;;;;;;;20.95;8.57;;;;;;;4.27;90.94;102485.94;5053065;28;20124;-64
2023/01/27 04:26:17;;;;;;;16.38;7.75;;;;;;;4.30;91.07;102481.72;5034948;28;20025;-65
2023/01/27 04:28:42;;;;;;;20.10;8.55;;;;;;;4.30;90.04;102486.97;5052461;28;20470;-65
2023/01/27 04:31:08;;;;;;;17.63;8.90;;;;;;;4.26;90.31;102486.75;5052716;28;20048;-64
2023/01/27 04:33:33;;;;;;;16.45;9.18;;;;;;;4.25;89.63;102481.44;5052712;28;20162;-64
2023/01/27 04:35:59;;;;;;;16.00;8.45;;;;;;;4.25;89.84;102492.81;5052717;28;20397;-65
2023/01/27 04:38:24;;;;;;;14.30;8.38;;;;;;;4.27;90.00;102488.56;5034932;28;20106;-65
2023/01/27 04:40:50;;;;;;;14.43;8.60;;;;;;;4.27;89.59;102491.19;5052594;28;20134;-65
2023/01/27 04:43:15;;;;;;;13.43;7.72;;;;;;;4.29;89.37;102496.53;5034559;28;20040;-64
2023/01/27 04:45:40;;;;;;;15.07;8.18;;;;;;;4.32;89.15;102498.41;5034748;28;20029;-65
2023/01/27 04:48:06;;;;;;;15.38;8.18;;;;;;;4.33;89.07;102495.00;5053457;28;20029;-65
2023/01/27 04:50:34;;;;;;;15.93;8.75;;;;;;;4.32;89.19;102491.47;5038711;28;20064;-65
2023/01/27 04:53:00;;;;;;;14.57;8.45;;;;;;;4.33;89.41;102495.91;5056495;28;20025;-65
2023/01/27 04:55:25;;;;;;;14.45;9.10;;;;;;;4.33;88.55;102502.88;5056465;28;20036;-64
2023/01/27 04:57:51;;;;;;;16.27;8.68;;;;;;;4.30;89.17;102486.97;5056399;28;20035;-65
2023/01/27 05:00:16;;;;;;;14.00;7.78;;;;;;;4.31;87.94;102504.47;5056232;28;20071;-65
2023/01/27 05:02:42;;;;;;;17.30;8.30;;;;;;;4.24;87.78;102493.63;5056262;28;20100;-65
2023/01/27 05:05:08;;;;;;;14.43;7.68;;;;;;;4.23;88.04;102502.25;5056295;28;20104;-65
2023/01/27 05:07:33;;;;;;;14.10;8.13;;;;;;;4.23;87.83;102501.34;5056189;28;20471;-65
2023/01/27 05:09:59;;;;;;;14.38;7.55;;;;;;;4.17;87.69;102512.34;5056225;28;20049;-65
2023/01/27 05:12:24;;;;;;;14.60;7.85;;;;;;;4.15;87.50;102511.34;5034790;28;20053;-65
2023/01/27 05:14:49;;;;;;;13.15;7.60;;;;;;;4.19;88.18;102510.72;5036151;28;20076;-64
2023/01/27 05:17:15;;;;;;;12.85;7.65;;;;;;;4.15;88.48;102508.72;5036176;28;20060;-65
2023/01/27 05:19:40;;;;;;;12.93;8.10;;;;;;;4.15;87.43;102510.44;5036075;28;20032;-64
2023/01/27 05:22:06;;;;;;;14.35;8.10;;;;;;;4.17;87.37;102519.31;5036158;28;20028;-65
2023/01/27 05:24:31;;;;;;;13.68;8.02;;;;;;;4.18;86.81;102522.00;5034769;28;20025;-65
2023/01/27 05:26:57;;;;;;;12.63;8.18;;;;;;;4.16;87.18;102526.25;5035754;28;20072;-64
2023/01/27 05:29:22;;;;;;;13.55;8.13;;;;;;;4.17;87.46;102522.81;5035870;28;20026;-64
2023/01/27 05:31:48;;;;;;;12.88;7.72;;;;;;;4.20;87.78;102527.34;5035746;28;20021;-65
2023/01/27 05:34:14;;;;;;;13.05;8.20;;;;;;;4.21;88.50;102532.66;5035972;28;20375;-64
2023/01/27 05:36:39;;;;;;;13.93;9.05;;;;;;;4.17;87.70;102530.66;5035633;28;20478;-65
2023/01/27 05:39:05;;;;;;;15.70;8.77;;;;;;;4.25;88.30;102537.28;5035585;28;20026;-64
2023/01/27 05:41:30;;;;;;;13.50;8.45;;;;;;;4.27;87.96;102533.03;5035650;28;20502;-65
2023/01/27 05:43:56;;;;;;;13.98;8.38;;;;;;;4.25;88.15;102542.53;5034313;28;20148;-64
2023/01/27 05:46:24;;;;;;;12.48;7.88;;;;;;;4.29;87.70;102546.25;5035744;28;20032;-64
2023/01/27 05:48:52;;;;;;;14.23;8.45;;;;;;;4.31;87.69;102548.94;5035747;28;20052;-65
2023/01/27 05:51:19;;;;;;;16.58;9.00;;;;;;;4.34;88.10;102549.16;5035454;28;20044;-65
2023/01/27 05:53:45;;;;;;;13.60;8.82;;;;;;;4.38;88.02;102541.59;5035376;28;20029;-65
2023/01/27 05:56:12;;;;;;;14.40;9.02;;;;;;;4.42;88.17;102554.06;5035328;28;20041;-65
2023/01/27 05:58:39;;;;;;;12.00;8.20;;;;;;;4.45;88.09;102549.03;5035157;28;20029;-65
2023/01/27 06:01:08;;;;;;;15.10;8.40;;;;;;;4.48;87.51;102546.59;5034328;28;20021;-64
2023/01/27 06:03:34;;;;;;;13.63;8.50;;;;;;;4.47;86.97;102554.34;5035351;28;20017;-64
2023/01/27 06:05:59;;;;;;;14.13;8.55;;;;;;;4.42;87.82;102556.69;5035156;28;20497;-64
2023/01/27 06:08:25;;;;;;;16.73;9.35;;;;;;;4.44;87.93;102554.16;5035255;28;20048;-64
2023/01/27 06:10:52;;;;;;;13.25;8.32;;;;;;;4.41;86.87;102560.13;5035079;28;20065;-65
2023/01/27 06:13:19;;;;;;;13.70;8.90;;;;;;;4.41;87.51;102557.50;5054955;28;20131;-64
2023/01/27 06:15:46;;;;;;;12.73;8.65;;;;;;;4.41;87.11;102548.72;5054986;28;20098;-64
2023/01/27 06:18:12;;;;;;;15.98;8.82;;;;;;;4.41;87.06;102543.47;5071622;28;20137;-64
2023/01/27 06:20:38;;;;;;;13.60;8.10;;;;;;;4.43;87.55;102548.00;5074899;28;20060;-64
2023/01/27 06:23:05;;;;;;;14.13;8.57;;;;;;;4.48;87.66;102558.78;5074948;28;20103;-64
2023/01/27 06:25:35;;;;;;;14.85;9.00;;;;;;;4.45;87.50;102562.13;5074861;28;20458;-65
2023/01/27 06:28:00;;;;;;;12.63;8.68;;;;;;;4.45;87.31;102551.66;5074462;28;20036;-64
2023/01/27 06:30:25;;;;;;;17.80;10.18;;;;;;;4.44;87.70;102552.44;5056777;28;20137;-64
2023/01/27 06:32:51;;;;;;;16.38;10.07;;;;;;;4.42;86.94;102561.91;5074619;28;20028;-64
2023/01/27 06:35:16;;;;;;;18.45;10.63;;;;;;;4.39;87.26;102558.19;5074796;28;20024;-64
2023/01/27 06:37:42;;;;;;;17.33;9.55;;;;;;;4.32;88.05;102556.88;5074608;28;20024;-65
2023/01/27 06:40:08;;;;;;;16.98;9.68;;;;;;;4.36;87.25;102566.75;5074433;28;20031;-64
2023/01/27 06:42:34;;;;;;;12.82;8.05;;;;;;;4.33;87.86;102563.94;5056572;28;20028;-64
2023/01/27 06:44:59;;;;;;;11.85;8.05;;;;;;;4.34;87.45;102560.53;5074377;28;20043;-64
2023/01/27 06:47:24;;;;;;;13.32;8.00;;;;;;;4.34;87.98;102557.91;5074307;28;20432;-64
2023/01/27 06:49:50;;;;;;;11.27;7.50;;;;;;;4.36;87.92;102565.84;5074270;28;20025;-64
2023/01/27 06:52:15;;;;;;;11.18;7.68;;;;;;;4.38;87.63;102570.38;5074206;28;20474;-64
2023/01/27 06:54:40;;;;;;;11.55;7.35;;;;;;;4.43;87.46;102568.03;5074253;28;20028;-64
2023/01/27 06:57:08;;;;;;;12.68;7.45;;;;;;;4.40;87.89;102554.75;5056023;28;20385;-64
2023/01/27 06:59:34;;;;;;;12.07;7.50;;;;;;;4.45;87.21;102555.94;5073993;28;20024;-64
2023/01/27 07:01:59;;;;;;;10.45;7.13;;;;;;;4.45;86.76;102564.72;5074008;28;20370;-64
2023/01/27 07:04:24;;;;;;;10.07;6.63;;;;;;;4.42;87.38;102567.16;5074180;28;20029;-64
2023/01/27 07:06:50;;;;;;;9.82;6.72;;;;;;;4.42;87.17;102566.25;5074173;28;20050;-64
2023/01/27 07:09:15;;;;;;;9.80;7.15;;;;;;;4.40;86.75;102570.47;5055999;28;20434;-64
2023/01/27 07:11:40;;;;;;;13.25;6.60;;;;;;;4.40;87.17;102571.38;5073623;28;20044;-64
2023/01/27 07:14:06;;;;;;;9.63;5.95;;;;;;;4.45;86.77;102577.81;5073944;28;20150;-64
2023/01/27 07:16:31;;;;;;;9.18;5.97;;;;;;;4.46;86.30;102576.09;5056056;28;20035;-64
2023/01/27 07:18:57;;;;;;;9.93;6.25;;;;;;;4.46;86.95;102578.72;5073482;28;20470;-64
2023/01/27 07:21:24;;;;;;;8.73;6.13;;;;;;;4.45;86.34;102577.81;5055664;28;20035;-64
2023/01/27 07:23:49;;;;;;;9.40;5.78;;;;;;;4.48;87.03;102587.56;5073622;28;20474;-65
2023/01/27 07:26:14;;;;;;;12.02;6.15;;;;;;;4.47;86.67;102580.53;5073625;28;20039;-64
2023/01/27 07:28:40;;;;;;;7.55;5.70;;;;;;;4.50;86.35;102584.25;5055451;28;20043;-64
2023/01/27 07:31:05;;;;;;;8.65;5.63;;;;;;;4.49;85.50;102585.03;5073734;28;20428;-64
2023/01/27 07:33:31;;;;;;;9.00;5.38;;;;;;;4.50;86.15;102588.59;5073982;28;20481;-64
2023/01/27 07:35:56;;;;;;;10.15;5.38;;;;;;;4.52;86.33;102582.63;5073661;28;20024;-64
2023/01/27 07:38:21;;;;;;;10.50;5.70;;;;;;;4.51;86.07;102579.91;5073648;28;20024;-64
2023/01/27 07:40:47;;;;;;;8.63;5.25;;;;;;;4.53;85.56;102587.03;5055747;28;20028;-64
2023/01/27 07:43:12;;;;;;;8.70;5.60;;;;;;;4.54;85.79;102590.59;5073798;28;20442;-64
2023/01/27 07:45:38;;;;;;;7.15;5.07;;;;;;;4.55;85.41;102602.84;5073573;28;20504;-64
2023/01/27 07:48:05;;;;;;;7.22;4.88;;;;;;;4.56;85.38;102601.16;5073588;28;20024;-64
2023/01/27 07:50:31;;;;;;;7.20;5.10;;;;;;;4.56;85.31;102601.16;5073512;28;20028;-64
2023/01/27 07:53:01;;;;;;;8.55;5.38;;;;;;;4.58;86.10;102600.41;5073507;28;20548;-64
2023/01/27 07:55:27;;;;;;;9.80;5.70;;;;;;;4.58;86.10;102603.03;5073407;28;20073;-64
2023/01/27 07:57:53;;;;;;;7.90;5.30;;;;;;;4.55;85.41;102605.47;5055469;28;20032;-64
2023/01/27 08:00:20;;;;;;;8.05;5.28;;;;;;;4.52;85.72;102607.88;5073288;28;20401;-64
2023/01/27 08:02:56;;;;;;;7.35;5.03;;;;;;;4.51;86.24;102611.31;5073259;28;20484;-64
2023/01/27 08:05:22;;;;;;;8.35;5.15;;;;;;;4.50;86.15;102613.03;5073395;28;20025;-64
2023/01/27 08:07:49;;;;;;;10.45;5.18;;;;;;;4.52;86.49;102603.56;5073198;28;20031;-64
2023/01/27 08:10:16;;;;;;;6.50;4.80;;;;;;;4.57;85.79;102611.69;5073393;28;20016;-64
2023/01/27 08:12:42;;;;;;;8.07;5.03;;;;;;;4.50;86.47;102602.56;5073106;28;20045;-64
2023/01/27 08:15:08;;;;;;;6.47;4.65;;;;;;;4.55;86.44;102613.31;5073215;28;20020;-64
2023/01/27 08:17:33;;;;;;;7.78;4.97;;;;;;;4.49;86.26;102608.59;5073332;28;20469;-64
2023/01/27 08:19:59;;;;;;;7.63;5.20;;;;;;;4.53;86.17;102614.94;5073173;28;20385;-64
2023/01/27 08:22:24;;;;;;;9.80;5.57;;;;;;;4.52;85.83;102619.25;5072777;28;20111;-64
2023/01/27 08:24:50;;;;;;;7.75;5.35;;;;;;;4.48;86.15;102613.75;5072933;28;20082;-64
2023/01/27 08:27:16;;;;;;;8.10;5.10;;;;;;;4.54;85.87;102616.75;5072867;28;20071;-64
2023/01/27 08:29:42;;;;;;;8.18;5.10;;;;;;;4.53;85.86;102612.31;5073084;28;20030;-64
2023/01/27 08:32:07;;;;;;;6.25;4.78;;;;;;;4.55;85.83;102626.41;5073131;28;20021;-64
2023/01/27 08:34:33;;;;;;;7.75;4.93;;;;;;;4.59;85.73;102619.66;5073002;28;20036;-64
2023/01/27 08:36:58;;;;;;;7.78;4.78;;;;;;;4.62;86.28;102625.97;5072993;28;20082;-64
2023/01/27 08:39:24;;;;;;;6.65;4.70;;;;;;;4.65;86.33;102626.19;5072933;28;20028;-64
2023/01/27 08:41:49;;;;;;;8.60;4.60;;;;;;;4.66;85.90;102622.75;5055388;28;20047;-64
2023/01/27 08:44:15;;;;;;;7.45;4.90;;;;;;;4.64;86.17;102620.84;5072674;28;20029;-65
2023/01/27 08:46:41;;;;;;;7.80;4.85;;;;;;;4.64;86.43;102631.34;5072260;28;20025;-64
2023/01/27 08:49:06;;;;;;;7.30;4.75;;;;;;;4.68;85.99;102631.63;5071548;28;20381;-64
2023/01/27 08:51:31;;;;;;;6.70;4.70;;;;;;;4.70;86.51;102635.22;5072179;28;20054;-64
2023/01/27 08:53:57;;;;;;;7.43;4.95;;;;;;;4.72;86.33;102637.97;5072070;28;20029;-64
2023/01/27 08:56:23;;;;;;;5.78;4.43;;;;;;;4.76;85.92;102645.22;5054280;28;20071;-65
2023/01/27 08:58:51;;;;;;;6.80;4.97;;;;;;;4.76;85.98;102650.44;5071695;28;20029;-64
2023/01/27 09:01:19;;;;;;;7.03;4.55;;;;;;;4.77;85.43;102658.38;5072034;28;20490;-64
2023/01/27 09:03:45;;;;;;;6.47;4.15;;;;;;;4.75;85.27;102659.09;5072626;28;20024;-65
2023/01/27 09:06:11;;;;;;;6.13;4.45;;;;;;;4.75;85.48;102656.47;5072420;28;20367;-65
2023/01/27 09:08:38;;;;;;;6.55;4.45;;;;;;;4.71;85.23;102655.41;5072427;28;20021;-65
2023/01/27 09:11:15;;;;;;;6.50;4.32;;;;;;;4.73;85.45;102658.09;5072230;28;20115;-65
2023/01/27 09:13:40;;;;;;;6.47;4.60;;;;;;;4.77;85.12;102654.88;5072375;28;20029;-65
2023/01/27 09:16:07;;;;;;;7.18;4.40;;;;;;;4.78;85.35;102652.34;5072305;28;20032;-65
2023/01/27 09:18:33;;;;;;;5.60;4.25;;;;;;;4.84;85.05;102656.13;5072329;28;20047;-65
2023/01/27 09:21:03;;;;;;;5.90;4.35;;;;;;;4.85;84.71;102652.75;5072471;28;20114;-65
2023/01/27 09:23:29;;;;;;;5.90;4.10;;;;;;;4.88;84.29;102666.00;5072555;28;20107;-65
2023/01/27 09:25:54;;;;;;;5.88;3.97;;;;;;;4.88;83.86;102660.75;5072441;28;20427;-65
2023/01/27 09:28:19;;;;;;;7.00;3.88;;;;;;;4.85;83.61;102655.34;5072212;28;20093;-65
2023/01/27 09:30:45;;;;;;;5.88;3.80;;;;;;;4.92;83.97;102665.38;5072340;28;20036;-64
2023/01/27 09:33:12;;;;;;;6.00;4.20;;;;;;;4.98;83.79;102671.94;5072198;28;20095;-65
2023/01/27 09:35:45;;;;;;;6.60;4.53;;;;;;;4.96;83.71;102663.06;5073720;28;20389;-65
2023/01/27 09:38:15;;;;;;;6.13;3.95;;;;;;;5.00;82.85;102679.88;5075743;28;20488;-65
2023/01/27 09:40:40;;;;;;;5.05;4.20;;;;;;;5.00;83.53;102677.25;5075600;28;20028;-65
2023/01/27 09:43:23;;;;;;;5.50;4.30;;;;;;;5.05;83.62;102675.81;5075897;28;20025;-65
2023/01/27 09:46:06;;;;;;;6.90;3.90;;;;;;;5.05;83.30;102686.31;5075545;28;20032;-65
2023/01/27 09:48:56;;;;;;;7.18;4.25;;;;;;;5.03;83.31;102677.47;5075604;28;20047;-64
2023/01/27 09:51:27;;;;;;;6.60;4.00;;;;;;;4.95;82.49;102682.22;5075538;28;20159;-64
2023/01/27 09:53:55;;;;;;;5.50;4.22;;;;;;;4.97;82.88;102685.84;5075408;28;20108;-64
2023/01/27 09:56:28;;;;;;;4.97;3.60;;;;;;;4.96;82.62;102683.09;5075397;28;20508;-65
2023/01/27 09:59:09;;;;;;;5.45;3.90;;;;;;;4.96;83.10;102688.34;5075128;28;20025;-64
2023/01/27 10:01:49;;;;;;;6.32;4.25;;;;;;;4.94;82.06;102690.88;5075480;28;20028;-64
2023/01/27 10:04:30;;;;;;;5.18;4.30;;;;;;;4.92;82.55;102689.88;5075670;28;20369;-64
2023/01/27 10:07:26;;;;;;;5.25;4.40;;;;;;;4.95;83.67;102695.31;5075263;28;20059;-64
2023/01/27 10:10:33;;;;;;;8.50;4.05;;;;;;;5.01;83.25;102692.16;5075111;28;20086;-64
2023/01/27 10:13:09;;;;;;;6.10;4.43;;;;;;;5.01;82.23;102698.34;4974079;28;20163;-64
2023/01/27 10:15:38;;;;;;;5.95;4.25;;;;;;;5.00;82.43;102688.63;5061434;28;20062;-65
2023/01/27 10:18:29;;;;;;;5.35;4.30;;;;;;;5.08;83.05;102691.75;5074980;28;20051;-65
2023/01/27 10:21:12;;;;;;;5.72;4.30;;;;;;;5.15;82.50;102688.72;5075059;28;20028;-65
2023/01/27 10:23:49;;;;;;;5.35;4.07;;;;;;;5.21;82.04;102691.69;5074949;28;20020;-65
2023/01/27 10:26:33;;;;;;;5.40;3.97;;;;;;;5.27;82.53;102685.94;5057106;28;20023;-65
2023/01/27 10:29:12;;;;;;;5.72;4.20;;;;;;;5.35;82.15;102682.06;5074629;28;20535;-65
2023/01/27 10:32:09;;;;;;;5.40;4.00;;;;;;;5.39;82.50;102678.81;5056852;28;20027;-64
2023/01/27 10:34:40;;;;;;;5.32;3.97;;;;;;;5.42;81.56;102683.34;5047515;28;20039;-65
2023/01/27 10:37:17;;;;;;;5.95;4.30;;;;;;;5.46;82.17;102674.88;5074709;28;20481;-65
2023/01/27 10:40:02;;;;;;;4.95;3.97;;;;;;;5.48;81.84;102681.09;5074515;28;20032;-64
2023/01/27 10:42:42;;;;;;;5.35;4.13;;;;;;;5.49;81.61;102681.19;5074831;28;20101;-65
2023/01/27 10:45:36;;;;;;;5.55;3.95;;;;;;;5.55;81.92;102683.28;5074521;28;20021;-64
2023/01/27 10:48:35;;;;;;;5.88;4.53;;;;;;;5.52;81.94;102673.53;5052937;28;20040;-65
2023/01/27 10:51:11;;;;;;;5.30;4.05;;;;;;;5.47;81.75;102676.66;5074396;28;20028;-65
2023/01/27 10:53:51;;;;;;;8.10;4.13;;;;;;;5.50;81.66;102679.47;5074226;28;20032;-65
2023/01/27 10:56:24;;;;;;;6.45;4.20;;;;;;;5.50;80.86;102689.97;5074326;28;20020;-65
2023/01/27 10:59:04;;;;;;;7.72;4.47;;;;;;;5.49;81.49;102681.19;5073849;28;20490;-65
2023/01/27 11:01:39;;;;;;;5.25;4.00;;;;;;;5.44;81.19;102682.66;5074017;28;20017;-65
2023/01/27 11:04:19;;;;;;;5.60;3.90;;;;;;;5.38;81.43;102676.09;5074123;28;20020;-65
2023/01/27 11:06:47;;;;;;;5.32;3.90;;;;;;;5.39;81.66;102680.53;5057084;28;20024;-65
2023/01/27 11:09:22;;;;;;;5.78;4.03;;;;;;;5.35;81.52;102682.06;5073965;28;20099;-64
2023/01/27 11:11:49;;;;;;;6.55;4.20;;;;;;;5.36;81.66;102677.75;5073758;28;20127;-65
2023/01/27 11:14:17;;;;;;;5.20;4.03;;;;;;;5.40;82.31;102679.75;5073913;28;20055;-65
2023/01/27 11:16:47;;;;;;;7.22;4.07;;;;;;;5.40;81.54;102683.28;5073801;28;20503;-64
2023/01/27 11:19:17;;;;;;;4.47;3.88;;;;;;;5.31;81.32;102673.91;5073892;28;20512;-65
2023/01/27 11:21:43;;;;;;;5.32;4.20;;;;;;;5.32;80.97;102673.13;5074017;28;20036;-65
2023/01/27 11:24:31;;;;;;;5.45;4.05;;;;;;;5.30;81.63;102673.00;5055868;28;20512;-65
2023/01/27 11:27:06;;;;;;;7.15;4.63;;;;;;;5.24;81.49;102667.41;5073630;28;20028;-65
2023/01/27 11:29:37;;;;;;;8.50;3.80;;;;;;;5.21;81.29;102656.72;5073564;28;20036;-65
2023/01/27 11:32:08;;;;;;;6.97;4.10;;;;;;;5.25;82.00;102666.59;5073653;28;20103;-64
2023/01/27 11:34:43;;;;;;;5.32;4.18;;;;;;;5.38;82.91;102663.00;5055619;28;20262;-65
2023/01/27 11:37:19;;;;;;;5.90;4.30;;;;;;;5.51;81.70;102662.94;5073679;28;20028;-65
2023/01/27 11:39:45;;;;;;;7.40;4.43;;;;;;;5.62;nan;102660.97;5073319;28;20078;-65
2023/01/27 11:42:11;;;;;;;5.75;4.70;;;;;;;5.68;81.27;102661.31;5062048;28;20033;-65
2023/01/27 11:44:39;;;;;;;6.93;4.70;;;;;;;5.70;81.78;102655.38;5033336;28;20022;-65
2023/01/27 11:47:06;;;;;;;6.68;4.43;;;;;;;5.72;80.88;102663.31;5033408;28;20059;-65
2023/01/27 11:49:43;;;;;;;6.50;4.22;;;;;;;5.69;80.34;102656.16;5033634;28;20091;-65
2023/01/27 11:52:16;;;;;;;6.57;4.22;;;;;;;5.69;80.58;102655.25;5033427;28;20022;-65
2023/01/27 11:54:43;;;;;;;6.32;4.50;;;;;;;5.68;80.77;102661.31;5033305;28;20469;-65
2023/01/27 11:57:23;;;;;;;5.53;4.18;;;;;;;5.74;80.94;102654.75;5032957;28;20021;-65
2023/01/27 12:00:03;;;;;;;6.65;4.68;;;;;;;5.69;80.32;102645.66;5033015;28;20029;-65
2023/01/27 12:02:36;;;;;;;5.47;4.53;;;;;;;5.73;80.05;102655.53;5033309;28;20026;-64
2023/01/27 12:05:20;;;;;;;6.40;4.53;;;;;;;5.74;79.88;102651.22;5033495;28;20104;-65
2023/01/27 12:07:53;;;;;;;6.10;4.45;;;;;;;5.72;80.42;102652.81;5033237;28;20037;-65
2023/01/27 12:10:32;;;;;;;5.57;4.18;;;;;;;5.75;80.42;102655.63;5033116;28;20041;-65
2023/01/27 12:13:29;;;;;;;6.45;5.00;;;;;;;5.74;80.79;102649.50;5032899;28;20046;-65
2023/01/27 12:16:04;;;;;;;5.82;4.43;;;;;;;5.69;79.60;102653.53;5020221;28;20041;-64